Time;durP1;ratioP1;P1;durP2;ratioP2;P2;SDS_P1;SDS_P2;PMS_P1;PMS_P2;Temp;Humidity;BMP_temperature;BMP_pressure;BME280_temperature;BME280_humidity;BME280_pressure;Samples;Min_cycle;Max_cycle;Signal;HPM_P1;HPM_P2
2021/12/18 00:00:41;;;;;;;7.38;3.90;;;;;;;;;;5028939;28;20021;-83
2021/12/18 00:03:07;;;;;;;8.40;3.97;;;;;;;;;;5025394;28;20033;-90
2021/12/18 00:05:32;;;;;;;6.68;3.67;;;;;;;;;;5029639;28;20018;-83
2021/12/18 00:07:58;;;;;;;7.65;3.70;;;;;;;;;;5035042;28;20029;-84
2021/12/18 00:10:24;;;;;;;6.78;3.78;;;;;;;;;;5032208;28;20424;-84
2021/12/18 00:12:51;;;;;;;6.65;3.45;;;;;;;;;;5030495;28;20068;-88
2021/12/18 00:15:17;;;;;;;7.28;3.65;;;;;;;;;;5028736;28;20018;-84
2021/12/18 00:17:43;;;;;;;7.03;3.50;;;;;;;;;;5030891;28;20030;-83
2021/12/18 00:20:10;;;;;;;7.32;3.28;;;;;;;;;;5030506;28;20033;-84
2021/12/18 00:22:35;;;;;;;6.50;3.38;;;;;;;;;;5034318;28;20026;-84
2021/12/18 00:25:01;;;;;;;6.82;3.35;;;;;;;;;;5028158;28;20029;-83
2021/12/18 00:27:26;;;;;;;7.13;3.03;;;;;;;;;;5037479;28;20496;-89
2021/12/18 00:29:52;;;;;;;6.53;3.38;;;;;;;;;;5018714;28;20025;-85
2021/12/18 00:32:17;;;;;;;5.93;3.30;;;;;;;;;;5034231;28;20041;-90
2021/12/18 00:34:42;;;;;;;6.35;3.15;;;;;;;;;;5029181;28;20033;-84
2021/12/18 00:37:08;;;;;;;6.43;3.42;;;;;;;;;;5030154;28;20108;-83
2021/12/18 00:39:37;;;;;;;7.60;3.55;;;;;;;;;;5028622;28;20124;-89
2021/12/18 00:42:23;;;;;;;6.88;3.60;;;;;;;;;;5039199;28;20022;-90
2021/12/18 00:44:48;;;;;;;6.75;3.10;;;;;;;;;;5044044;28;20025;-83
2021/12/18 00:47:14;;;;;;;6.53;3.33;;;;;;;;;;5040661;28;20048;-84
2021/12/18 00:49:39;;;;;;;6.88;3.15;;;;;;;;;;5036139;28;20044;-82
2021/12/18 00:52:05;;;;;;;6.60;3.30;;;;;;;;;;5036152;28;20036;-88
2021/12/18 00:54:38;;;;;;;6.13;3.28;;;;;;;;;;5036219;28;20025;-88
2021/12/18 00:57:04;;;;;;;;;;;;;;;;;;5040421;28;20026;-83
2021/12/18 00:59:32;;;;;;;7.78;3.80;;;;;;;;;;5038190;28;19936;-85
2021/12/18 01:01:57;;;;;;;7.47;3.65;;;;;;;;;;5036256;28;20021;-89
2021/12/18 01:04:22;;;;;;;6.82;3.65;;;;;;;;;;5035149;28;20040;-84
2021/12/18 01:06:48;;;;;;;6.55;3.70;;;;;;;;;;5041645;28;20026;-83
2021/12/18 01:09:13;;;;;;;6.88;3.47;;;;;;;;;;5029838;28;20739;-83
2021/12/18 01:11:44;;;;;;;7.05;3.25;;;;;;;;;;5032254;28;20033;-83
2021/12/18 01:22:38;;;;;;;7.57;4.07;;;;;;;;;;5034993;28;20068;-90
2021/12/18 01:25:05;;;;;;;8.05;3.85;;;;;;;;;;5037280;28;20075;-89
2021/12/18 01:27:30;;;;;;;7.28;3.58;;;;;;;;;;5030668;28;20112;-90
2021/12/18 01:29:56;;;;;;;8.07;3.97;;;;;;;;;;5036725;28;20457;-83
2021/12/18 01:32:21;;;;;;;6.78;3.70;;;;;;;;;;5031966;28;20028;-85
2021/12/18 01:34:48;;;;;;;7.50;3.70;;;;;;;;;;5036372;28;20076;-84
2021/12/18 01:37:14;;;;;;;7.30;3.50;;;;;;;;;;5033831;28;20022;-89
2021/12/18 01:39:39;;;;;;;7.95;3.85;;;;;;;;;;5039499;28;20048;-83
2021/12/18 01:42:40;;;;;;;7.80;4.25;;;;;;;;;;5036154;28;20029;-87
2021/12/18 01:52:55;;;;;;;7.63;3.97;;;;;;;;;;5041733;28;20094;-89
2021/12/18 01:55:26;;;;;;;8.70;4.82;;;;;;;;;;5036719;28;20053;-83
2021/12/18 01:57:52;;;;;;;8.90;4.35;;;;;;;;;;5028843;28;20057;-84
2021/12/18 02:00:30;;;;;;;8.68;4.70;;;;;;;;;;5031674;28;20061;-90
2021/12/18 02:02:56;;;;;;;9.50;4.88;;;;;;;;;;5034650;28;20044;-84
2021/12/18 02:05:21;;;;;;;12.00;5.63;;;;;;;;;;5032975;28;20033;-90
2021/12/18 02:07:47;;;;;;;9.85;5.20;;;;;;;;;;5038182;28;20029;-89
2021/12/18 02:10:23;;;;;;;9.55;5.00;;;;;;;;;;5036922;28;20120;-85
2021/12/18 02:20:55;;;;;;;8.15;3.95;;;;;;;;;;5033687;28;20083;-88
2021/12/18 02:23:21;;;;;;;9.40;4.78;;;;;;;;;;5029639;28;20037;-85
2021/12/18 02:25:47;;;;;;;8.00;4.28;;;;;;;;;;5027841;28;20021;-83
2021/12/18 02:28:18;;;;;;;8.60;4.05;;;;;;;;;;5032755;28;20033;-83
2021/12/18 02:30:44;;;;;;;6.97;3.92;;;;;;;;;;5041099;28;20025;-87
2021/12/18 02:33:10;;;;;;;6.90;3.70;;;;;;;;;;5037220;28;20025;-84
2021/12/18 02:35:43;;;;;;;7.70;4.18;;;;;;;;;;5039349;28;20369;-83
2021/12/18 02:38:23;;;;;;;8.68;3.88;;;;;;;;;;5030417;28;20083;-85
2021/12/18 02:41:26;;;;;;;7.88;4.20;;;;;;;;;;5036033;28;20437;-84
2021/12/18 02:43:41;;;;;;;6.68;3.47;;;;;;;;;;5030882;28;20033;-83
2021/12/18 02:46:08;;;;;;;7.70;3.70;;;;;;;;;;5037928;28;20024;-83
2021/12/18 02:48:40;;;;;;;8.20;4.05;;;;;;;;;;5032414;28;20025;-83
2021/12/18 02:51:08;;;;;;;8.68;4.30;;;;;;;;;;5034976;28;20115;-83
2021/12/18 02:53:34;;;;;;;7.68;4.18;;;;;;;;;;5035908;28;20064;-84
2021/12/18 02:56:03;;;;;;;7.10;3.60;;;;;;;;;;5035415;28;20025;-85
2021/12/18 02:58:30;;;;;;;7.18;3.80;;;;;;;;;;5042695;28;20033;-83
2021/12/18 03:00:58;;;;;;;7.35;3.83;;;;;;;;;;5028896;28;20025;-83
2021/12/18 03:03:27;;;;;;;6.97;3.80;;;;;;;;;;5040381;28;20031;-83
2021/12/18 03:06:08;;;;;;;6.60;3.60;;;;;;;;;;5028225;28;20066;-84
2021/12/18 03:08:47;;;;;;;6.47;3.50;;;;;;;;;;5037014;28;20029;-90
2021/12/18 03:24:53;;;;;;;7.50;4.00;;;;;;;;;;5038700;28;20036;-88
2021/12/18 03:27:19;;;;;;;6.55;3.53;;;;;;;;;;5027904;28;20026;-84
2021/12/18 03:29:45;;;;;;;7.40;3.70;;;;;;;;;;5029759;28;20120;-89
2021/12/18 03:32:10;;;;;;;6.93;3.47;;;;;;;;;;5036639;28;20059;-84
2021/12/18 03:34:36;;;;;;;6.75;3.70;;;;;;;;;;5026205;28;20029;-88
2021/12/18 03:37:02;;;;;;;7.10;3.25;;;;;;;;;;5030640;28;20116;-83
2021/12/18 03:39:28;;;;;;;7.20;3.65;;;;;;;;;;5031895;28;20060;-84
2021/12/18 03:41:54;;;;;;;6.05;3.30;;;;;;;;;;5032968;28;20025;-83
2021/12/18 03:44:20;;;;;;;7.82;3.53;;;;;;;;;;5036891;28;20366;-89
2021/12/18 03:46:45;;;;;;;7.10;3.63;;;;;;;;;;5051444;28;20034;-83
2021/12/18 03:49:11;;;;;;;6.22;3.50;;;;;;;;;;5029859;28;20025;-88
2021/12/18 03:51:36;;;;;;;7.00;3.42;;;;;;;;;;5028856;28;20120;-84
2021/12/18 03:54:02;;;;;;;7.43;3.95;;;;;;;;;;5032761;28;22953;-89
2021/12/18 03:56:29;;;;;;;7.00;3.63;;;;;;;;;;5031166;28;20029;-87
2021/12/18 03:58:55;;;;;;;6.60;3.67;;;;;;;;;;5033952;28;20489;-87
2021/12/18 04:01:21;;;;;;;8.02;3.95;;;;;;;;;;5039658;28;20073;-90
2021/12/18 04:03:51;;;;;;;7.40;4.03;;;;;;;;;;5030697;28;20104;-89
2021/12/18 04:06:17;;;;;;;7.10;3.47;;;;;;;;;;5028865;28;20072;-89
2021/12/18 04:08:43;;;;;;;7.28;3.90;;;;;;;;;;5034593;28;20033;-85
2021/12/18 04:11:08;;;;;;;9.02;4.13;;;;;;;;;;5031166;28;20057;-90
2021/12/18 04:13:34;;;;;;;8.18;4.18;;;;;;;;;;5031665;28;20036;-87
2021/12/18 04:16:00;;;;;;;6.75;3.50;;;;;;;;;;5040164;28;20088;-90
2021/12/18 04:18:25;;;;;;;8.27;4.00;;;;;;;;;;5039669;28;20021;-89
2021/12/18 04:20:51;;;;;;;10.55;3.80;;;;;;;;;;5039942;28;20018;-89
2021/12/18 04:23:16;;;;;;;8.32;3.85;;;;;;;;;;5032444;28;20040;-87
2021/12/18 04:25:42;;;;;;;6.85;3.38;;;;;;;;;;5035968;28;20033;-83
2021/12/18 04:28:08;;;;;;;6.88;3.28;;;;;;;;;;5035855;28;20025;-83
2021/12/18 04:30:34;;;;;;;7.30;3.65;;;;;;;;;;5036707;28;20077;-89
2021/12/18 04:32:59;;;;;;;6.13;3.03;;;;;;;;;;5035529;28;20029;-83
2021/12/18 04:35:27;;;;;;;7.53;3.38;;;;;;;;;;5033506;28;20037;-88
2021/12/18 04:37:52;;;;;;;6.32;2.88;;;;;;;;;;5037958;28;20044;-86
2021/12/18 04:40:18;;;;;;;7.43;3.20;;;;;;;;;;5029631;28;20489;-83
2021/12/18 04:42:43;;;;;;;6.10;3.15;;;;;;;;;;5030192;28;20025;-88
2021/12/18 04:45:09;;;;;;;6.20;3.05;;;;;;;;;;5031473;28;20029;-89
2021/12/18 04:47:34;;;;;;;5.95;3.17;;;;;;;;;;5033696;28;20477;-82
2021/12/18 04:50:00;;;;;;;5.70;2.92;;;;;;;;;;5038288;28;20063;-84
2021/12/18 04:52:25;;;;;;;6.93;3.30;;;;;;;;;;5039509;28;20041;-89
2021/12/18 04:54:51;;;;;;;7.13;2.90;;;;;;;;;;5032260;28;20041;-90
2021/12/18 04:57:17;;;;;;;6.68;3.05;;;;;;;;;;5028698;28;20493;-84
2021/12/18 04:59:44;;;;;;;6.55;3.17;;;;;;;;;;5033038;28;20041;-86
2021/12/18 05:02:13;;;;;;;7.35;3.15;;;;;;;;;;5037433;28;20025;-84
2021/12/18 05:04:38;;;;;;;7.25;3.08;;;;;;;;;;5033895;28;20029;-83
2021/12/18 05:07:04;;;;;;;8.40;3.35;;;;;;;;;;5037711;28;20029;-89
2021/12/18 05:09:31;;;;;;;8.38;3.72;;;;;;;;;;5035749;28;20057;-87
2021/12/18 05:11:57;;;;;;;9.63;4.65;;;;;;;;;;5041070;28;20040;-89
2021/12/18 05:14:22;;;;;;;9.73;4.75;;;;;;;;;;5032956;28;20453;-84
2021/12/18 05:16:48;;;;;;;11.40;4.80;;;;;;;;;;5033000;28;20025;-83
2021/12/18 05:19:14;;;;;;;14.35;6.05;;;;;;;;;;5037848;28;20119;-89
2021/12/18 05:21:39;;;;;;;11.15;5.20;;;;;;;;;;5036344;28;20666;-83
2021/12/18 05:24:05;;;;;;;12.27;5.70;;;;;;;;;;5029749;28;20068;-90
2021/12/18 05:26:31;;;;;;;11.20;5.60;;;;;;;;;;5036489;28;20040;-83
2021/12/18 05:28:56;;;;;;;10.18;4.75;;;;;;;;;;5030821;28;20044;-89
2021/12/18 05:31:21;;;;;;;9.15;4.50;;;;;;;;;;5030190;28;20052;-88
2021/12/18 05:33:49;;;;;;;9.93;4.32;;;;;;;;;;5033811;28;20428;-82
2021/12/18 05:36:39;;;;;;;8.73;4.15;;;;;;;;;;5037875;28;20033;-84
2021/12/18 05:39:07;;;;;;;7.75;4.05;;;;;;;;;;5025093;28;20021;-83
2021/12/18 05:41:33;;;;;;;8.13;3.70;;;;;;;;;;5034184;28;20022;-83
2021/12/18 05:44:02;;;;;;;7.97;3.90;;;;;;;;;;5037673;28;20472;-86
2021/12/18 05:46:28;;;;;;;7.40;3.55;;;;;;;;;;5034603;28;20029;-84
2021/12/18 05:48:53;;;;;;;7.90;3.70;;;;;;;;;;5031157;28;20037;-83
2021/12/18 05:51:19;;;;;;;8.45;3.58;;;;;;;;;;5040132;28;20025;-89
2021/12/18 05:53:44;;;;;;;7.38;3.70;;;;;;;;;;5027808;28;20159;-89
2021/12/18 05:56:10;;;;;;;7.32;3.28;;;;;;;;;;5029343;28;20124;-83
2021/12/18 05:58:36;;;;;;;6.85;3.65;;;;;;;;;;5032858;28;20037;-88
2021/12/18 06:01:01;;;;;;;7.28;3.50;;;;;;;;;;5034018;28;20060;-88
2021/12/18 06:03:27;;;;;;;7.80;3.58;;;;;;;;;;5040393;28;20029;-83
2021/12/18 06:05:52;;;;;;;7.13;3.33;;;;;;;;;;5030326;28;20033;-83
2021/12/18 06:08:18;;;;;;;7.05;3.17;;;;;;;;;;5029178;28;20033;-83
2021/12/18 06:10:43;;;;;;;6.80;3.28;;;;;;;;;;5035535;28;21662;-83
2021/12/18 06:13:08;;;;;;;7.85;3.15;;;;;;;;;;5033699;28;20031;-84
2021/12/18 06:15:34;;;;;;;6.63;3.00;;;;;;;;;;5032192;28;20033;-83
2021/12/18 06:18:00;;;;;;;6.53;2.92;;;;;;;;;;5029069;28;20033;-83
2021/12/18 06:20:27;;;;;;;7.00;3.55;;;;;;;;;;5033344;28;20057;-89
2021/12/18 06:22:54;;;;;;;6.90;3.40;;;;;;;;;;5033230;28;20388;-83
2021/12/18 06:25:19;;;;;;;9.30;3.80;;;;;;;;;;5036513;28;20033;-83
2021/12/18 06:27:45;;;;;;;7.18;3.25;;;;;;;;;;5030501;28;20030;-84
2021/12/18 06:30:11;;;;;;;8.35;4.05;;;;;;;;;;5031357;28;20049;-83
2021/12/18 06:32:52;;;;;;;8.75;3.47;;;;;;;;;;5032245;28;20064;-83
2021/12/18 06:35:17;;;;;;;7.68;3.50;;;;;;;;;;5030582;28;20040;-82
2021/12/18 06:37:42;;;;;;;7.85;3.30;;;;;;;;;;5028764;28;20025;-86
2021/12/18 06:40:08;;;;;;;6.13;3.08;;;;;;;;;;5033448;28;20079;-83
2021/12/18 06:42:34;;;;;;;8.55;3.75;;;;;;;;;;5035161;28;20029;-88
2021/12/18 06:44:59;;;;;;;6.50;3.05;;;;;;;;;;5033635;28;20045;-83
2021/12/18 06:47:25;;;;;;;8.68;3.00;;;;;;;;;;5030448;28;20031;-88
2021/12/18 06:49:50;;;;;;;5.28;2.50;;;;;;;;;;5041242;28;20036;-83
2021/12/18 06:52:15;;;;;;;6.72;2.92;;;;;;;;;;5035744;28;20073;-83
2021/12/18 06:54:41;;;;;;;6.88;3.22;;;;;;;;;;5028653;28;20037;-83
2021/12/18 06:57:06;;;;;;;6.00;2.83;;;;;;;;;;5033550;28;20025;-90
2021/12/18 06:59:34;;;;;;;5.93;2.80;;;;;;;;;;5034338;28;20077;-86
2021/12/18 07:02:00;;;;;;;5.65;2.53;;;;;;;;;;5032820;28;20029;-83
2021/12/18 07:04:25;;;;;;;4.57;2.00;;;;;;;;;;5033152;28;20385;-91
2021/12/18 07:06:52;;;;;;;6.10;2.33;;;;;;;;;;5028947;28;20120;-90
2021/12/18 07:09:18;;;;;;;6.30;2.65;;;;;;;;;;5027522;28;20459;-84
2021/12/18 07:11:44;;;;;;;5.53;2.40;;;;;;;;;;5026956;28;20071;-83
2021/12/18 07:14:09;;;;;;;6.28;2.40;;;;;;;;;;5027678;28;20029;-84
2021/12/18 07:16:35;;;;;;;5.18;2.15;;;;;;;;;;5028794;28;20036;-84
2021/12/18 07:19:00;;;;;;;5.18;2.25;;;;;;;;;;5032535;28;20029;-90
2021/12/18 07:21:28;;;;;;;5.47;2.38;;;;;;;;;;5023148;28;20478;-89
2021/12/18 07:23:54;;;;;;;4.22;1.80;;;;;;;;;;5050675;28;20026;-89
2021/12/18 07:26:19;;;;;;;4.85;1.88;;;;;;;;;;5029684;28;20027;-84
2021/12/18 07:28:45;;;;;;;4.63;1.90;;;;;;;;;;5026140;28;20022;-83
2021/12/18 07:31:10;;;;;;;5.00;2.20;;;;;;;;;;5029446;28;20374;-91
2021/12/18 07:33:37;;;;;;;4.93;2.08;;;;;;;;;;5030537;28;20025;-84
2021/12/18 07:36:06;;;;;;;5.25;1.92;;;;;;;;;;5031293;28;20064;-83
2021/12/18 07:38:31;;;;;;;5.50;2.05;;;;;;;;;;5033119;28;20022;-82
2021/12/18 07:40:57;;;;;;;5.75;2.30;;;;;;;;;;5039943;28;20027;-88
2021/12/18 07:43:22;;;;;;;5.38;2.10;;;;;;;;;;5030183;28;20034;-84
2021/12/18 07:45:47;;;;;;;6.20;2.40;;;;;;;;;;5032962;28;20029;-89
2021/12/18 07:48:13;;;;;;;5.88;2.30;;;;;;;;;;5029987;28;20029;-83
2021/12/18 07:50:38;;;;;;;5.47;2.30;;;;;;;;;;5032210;28;20112;-89
2021/12/18 07:53:04;;;;;;;6.43;2.67;;;;;;;;;;5040091;28;20044;-90
2021/12/18 07:55:29;;;;;;;6.57;2.67;;;;;;;;;;5037833;28;20025;-89
2021/12/18 07:57:55;;;;;;;6.57;2.67;;;;;;;;;;5034476;28;20053;-83
2021/12/18 08:00:21;;;;;;;8.38;3.05;;;;;;;;;;5032421;28;20104;-89
2021/12/18 08:02:48;;;;;;;6.20;2.67;;;;;;;;;;5035802;28;20037;-87
2021/12/18 08:05:14;;;;;;;7.00;2.72;;;;;;;;;;5038203;28;20029;-88
2021/12/18 08:07:40;;;;;;;6.70;2.50;;;;;;;;;;5035090;28;20519;-82
2021/12/18 08:10:06;;;;;;;6.82;2.38;;;;;;;;;;5032648;28;20064;-87
2021/12/18 08:12:32;;;;;;;6.85;2.80;;;;;;;;;;5032475;28;20036;-83
2021/12/18 08:14:58;;;;;;;6.30;2.85;;;;;;;;;;5031811;28;20037;-84
2021/12/18 08:17:27;;;;;;;6.97;2.80;;;;;;;;;;5033850;28;20025;-89
2021/12/18 08:19:52;;;;;;;7.38;2.95;;;;;;;;;;5038240;28;20492;-84
2021/12/18 08:22:18;;;;;;;6.35;2.90;;;;;;;;;;5030128;28;20124;-83
2021/12/18 08:25:00;;;;;;;4.90;2.42;;;;;;;;;;5034030;28;20063;-83
2021/12/18 08:27:30;;;;;;;4.88;2.22;;;;;;;;;;5048180;28;20025;-83
2021/12/18 08:29:56;;;;;;;5.70;2.53;;;;;;;;;;5035277;28;20033;-82
2021/12/18 08:32:22;;;;;;;5.13;2.22;;;;;;;;;;5036017;28;20033;-84
2021/12/18 08:34:48;;;;;;;4.53;2.20;;;;;;;;;;5032971;28;20032;-89
2021/12/18 08:37:13;;;;;;;4.45;2.20;;;;;;;;;;5034906;28;20028;-85
2021/12/18 08:39:39;;;;;;;6.00;1.92;;;;;;;;;;5027456;28;20112;-83
2021/12/18 08:42:06;;;;;;;4.47;2.17;;;;;;;;;;5028996;28;20010;-86
2021/12/18 08:44:34;;;;;;;4.47;2.05;;;;;;;;;;5033418;28;20022;-89
2021/12/18 08:47:00;;;;;;;3.80;1.63;;;;;;;;;;5039294;28;20026;-84
2021/12/18 08:49:27;;;;;;;4.72;2.03;;;;;;;;;;5032757;28;20125;-83
2021/12/18 08:51:54;;;;;;;4.18;1.85;;;;;;;;;;5032578;28;20017;-86
2021/12/18 08:54:20;;;;;;;4.10;2.00;;;;;;;;;;5033596;28;20029;-89
2021/12/18 08:56:45;;;;;;;3.47;1.75;;;;;;;;;;5037156;28;20387;-86
2021/12/18 08:59:11;;;;;;;3.70;1.83;;;;;;;;;;5033535;28;20912;-89
2021/12/18 09:01:36;;;;;;;3.60;1.65;;;;;;;;;;5030365;28;20050;-83
2021/12/18 09:04:02;;;;;;;3.80;1.83;;;;;;;;;;5027808;28;20057;-88
2021/12/18 09:06:28;;;;;;;4.70;2.08;;;;;;;;;;5037270;28;20107;-83
2021/12/18 09:08:53;;;;;;;4.38;1.80;;;;;;;;;;5033520;28;20075;-90
2021/12/18 09:11:20;;;;;;;3.83;1.67;;;;;;;;;;5023744;28;20392;-86
2021/12/18 09:13:45;;;;;;;3.42;1.73;;;;;;;;;;5033615;28;20120;-83
2021/12/18 09:16:11;;;;;;;4.40;1.95;;;;;;;;;;5030162;28;20187;-82
2021/12/18 09:18:36;;;;;;;4.68;2.20;;;;;;;;;;5039256;28;20385;-89
2021/12/18 09:21:03;;;;;;;3.38;1.67;;;;;;;;;;5040731;28;20052;-90
2021/12/18 09:23:29;;;;;;;3.33;1.60;;;;;;;;;;5033446;28;20029;-89
2021/12/18 09:25:54;;;;;;;4.28;1.75;;;;;;;;;;5043153;28;20373;-85
2021/12/18 09:28:20;;;;;;;3.78;1.60;;;;;;;;;;5024866;28;20029;-89
2021/12/18 09:30:45;;;;;;;3.35;1.50;;;;;;;;;;5029314;28;20033;-83
2021/12/18 09:33:36;;;;;;;4.63;2.00;;;;;;;;;;5033497;28;20014;-82
2021/12/18 09:39:23;;;;;;;3.35;1.70;;;;;;;;;;5035732;28;20036;-82
2021/12/18 09:41:52;;;;;;;4.13;1.80;;;;;;;;;;5039472;28;20031;-89
2021/12/18 09:44:55;;;;;;;3.45;1.80;;;;;;;;;;5034252;28;20025;-84
2021/12/18 09:47:23;;;;;;;3.72;1.83;;;;;;;;;;5042796;28;20044;-89
2021/12/18 09:50:09;;;;;;;3.50;1.60;;;;;;;;;;5037096;28;20025;-83
2021/12/18 09:52:38;;;;;;;3.17;1.60;;;;;;;;;;5044015;28;20041;-89
2021/12/18 09:55:05;;;;;;;3.38;1.50;;;;;;;;;;5031865;28;20091;-89
2021/12/18 09:57:31;;;;;;;3.25;1.40;;;;;;;;;;5041773;28;20029;-83
2021/12/18 09:59:57;;;;;;;3.15;1.40;;;;;;;;;;5030486;28;20943;-89
2021/12/18 10:02:22;;;;;;;4.00;1.70;;;;;;;;;;5026188;28;20120;-83
2021/12/18 10:04:48;;;;;;;3.13;1.63;;;;;;;;;;5033258;28;20079;-82
2021/12/18 10:07:26;;;;;;;4.50;1.73;;;;;;;;;;5031108;28;20025;-83
2021/12/18 10:09:56;;;;;;;2.95;1.50;;;;;;;;;;5036270;28;20069;-84
2021/12/18 10:12:31;;;;;;;3.30;1.60;;;;;;;;;;5029557;28;20041;-84
2021/12/18 10:15:13;;;;;;;3.97;1.40;;;;;;;;;;5038828;28;20036;-88
2021/12/18 10:17:42;;;;;;;2.75;1.30;;;;;;;;;;5040249;28;20029;-83
2021/12/18 10:20:10;;;;;;;3.05;1.33;;;;;;;;;;5032817;28;20017;-84
2021/12/18 10:22:42;;;;;;;3.42;1.50;;;;;;;;;;5036274;28;20492;-85
2021/12/18 10:25:15;;;;;;;2.97;1.40;;;;;;;;;;5026176;28;20022;-88
2021/12/18 10:27:43;;;;;;;3.08;1.60;;;;;;;;;;5036702;28;20488;-87
2021/12/18 10:30:17;;;;;;;4.10;1.70;;;;;;;;;;5020938;28;20121;-89
2021/12/18 10:33:04;;;;;;;3.35;1.45;;;;;;;;;;5023268;28;20029;-84
2021/12/18 10:35:55;;;;;;;4.07;2.00;;;;;;;;;;5035188;28;20030;-83
2021/12/18 10:38:51;;;;;;;3.75;2.10;;;;;;;;;;5028581;28;20026;-83
2021/12/18 10:41:32;;;;;;;3.85;1.90;;;;;;;;;;5030328;28;20117;-82
2021/12/18 10:44:09;;;;;;;5.80;2.45;;;;;;;;;;5030369;28;20033;-88
2021/12/18 10:46:45;;;;;;;4.75;2.30;;;;;;;;;;5034423;28;20021;-84
2021/12/18 10:49:19;;;;;;;4.78;2.30;;;;;;;;;;5029907;28;20037;-85
2021/12/18 10:51:50;;;;;;;5.05;2.28;;;;;;;;;;5032040;28;20124;-90
2021/12/18 10:54:35;;;;;;;4.95;2.45;;;;;;;;;;5032300;28;20520;-87
2021/12/18 10:57:28;;;;;;;5.10;2.40;;;;;;;;;;5039191;28;20052;-82
2021/12/18 10:59:57;;;;;;;4.72;2.25;;;;;;;;;;5030454;28;20503;-89
2021/12/18 11:02:51;;;;;;;;;;;;;;;;;;;;;
2021/12/18 11:05:51;;;;;;;4.20;2.40;;;;;;;;;;5030303;28;20028;-82
2021/12/18 11:08:46;;;;;;;4.75;2.60;;;;;;;;;;5026746;28;20568;-89
2021/12/18 11:14:22;;;;;;;5.65;2.50;;;;;;;;;;5000170;28;20093;-88
2021/12/18 11:16:56;;;;;;;4.60;2.22;;;;;;;;;;5030497;28;20029;-89
2021/12/18 11:19:25;;;;;;;3.83;2.22;;;;;;;;;;5029092;28;20126;-83
2021/12/18 11:22:12;;;;;;;4.43;2.60;;;;;;;;;;5046986;28;20041;-86
2021/12/18 11:24:47;;;;;;;5.22;2.50;;;;;;;;;;5030192;28;20026;-83
2021/12/18 11:27:31;;;;;;;6.25;2.53;;;;;;;;;;5026261;28;20078;-91
2021/12/18 11:30:40;;;;;;;4.70;2.75;;;;;;;;;;5046436;28;20389;-84
2021/12/18 11:33:11;;;;;;;4.28;2.60;;;;;;;;;;5028336;28;20076;-83
2021/12/18 11:35:43;;;;;;;4.80;2.90;;;;;;;;;;5032421;28;20029;-83
2021/12/18 11:38:15;;;;;;;4.15;2.13;;;;;;;;;;5030733;28;20108;-82
2021/12/18 11:43:47;;;;;;;4.60;2.60;;;;;;;;;;5020716;28;20060;-82
2021/12/18 11:46:41;;;;;;;4.93;2.70;;;;;;;;;;5030828;28;20473;-91
2021/12/18 11:49:13;;;;;;;4.40;2.47;;;;;;;;;;5009549;28;20052;-89
2021/12/18 11:55:13;;;;;;;4.80;2.50;;;;;;;;;;5018877;28;20159;-83
2021/12/18 11:58:00;;;;;;;4.47;2.78;;;;;;;;;;5024787;28;20600;-83
2021/12/18 12:00:34;;;;;;;4.55;2.40;;;;;;;;;;5028212;28;20036;-88
2021/12/18 12:03:33;;;;;;;5.20;2.60;;;;;;;;;;5030758;28;20041;-88
2021/12/18 12:06:20;;;;;;;4.40;2.63;;;;;;;;;;5029854;28;20392;-89
2021/12/18 12:08:51;;;;;;;5.05;2.33;;;;;;;;;;5036931;28;20029;-88
2021/12/18 12:11:25;;;;;;;4.93;2.70;;;;;;;;;;5027725;28;20046;-89
2021/12/18 12:14:11;;;;;;;4.50;2.80;;;;;;;;;;5052984;28;20029;-83
2021/12/18 12:16:43;;;;;;;4.60;2.67;;;;;;;;;;5042728;28;20025;-89
2021/12/18 12:19:09;;;;;;;3.72;2.00;;;;;;;;;;5032114;28;20025;-83
2021/12/18 12:21:47;;;;;;;3.88;2.35;;;;;;;;;;5034052;28;20021;-90
2021/12/18 12:24:22;;;;;;;3.47;1.92;;;;;;;;;;5028621;28;20039;-90
2021/12/18 12:26:48;;;;;;;3.30;2.10;;;;;;;;;;5031364;28;20022;-89
2021/12/18 12:29:15;;;;;;;3.28;1.90;;;;;;;;;;5026180;28;20045;-83
2021/12/18 12:31:58;;;;;;;5.72;2.58;;;;;;;;;;5028415;28;20021;-88
2021/12/18 12:34:34;;;;;;;3.25;1.95;;;;;;;;;;5027836;28;20056;-89
2021/12/18 12:37:21;;;;;;;3.35;2.10;;;;;;;;;;5031814;28;20036;-89
2021/12/18 12:39:57;;;;;;;3.33;1.98;;;;;;;;;;5034587;28;20036;-84
2021/12/18 12:42:23;;;;;;;3.90;2.05;;;;;;;;;;5035918;28;20030;-89
2021/12/18 12:44:58;;;;;;;3.30;2.00;;;;;;;;;;5043622;28;20044;-90
2021/12/18 12:47:27;;;;;;;3.10;2.00;;;;;;;;;;5036284;28;20109;-89
2021/12/18 12:50:17;;;;;;;3.83;1.80;;;;;;;;;;5029335;28;20025;-83
2021/12/18 12:53:01;;;;;;;3.60;1.80;;;;;;;;;;5014260;28;20497;-88
2021/12/18 12:55:29;;;;;;;;;;;;;;;;;;5028689;28;20053;-83
2021/12/18 12:58:00;;;;;;;3.28;1.80;;;;;;;;;;5036601;28;19913;-90
2021/12/18 13:00:28;;;;;;;3.97;2.00;;;;;;;;;;5040311;28;20029;-89
2021/12/18 13:03:11;;;;;;;3.58;2.00;;;;;;;;;;5035193;28;20025;-90
2021/12/18 13:06:06;;;;;;;4.65;2.17;;;;;;;;;;5030275;28;20029;-83
2021/12/18 13:08:34;;;;;;;4.05;2.30;;;;;;;;;;5037199;28;20497;-88
2021/12/18 13:11:01;;;;;;;4.55;2.25;;;;;;;;;;5038920;28;20076;-88
2021/12/18 13:13:30;;;;;;;4.40;2.55;;;;;;;;;;5032906;28;20684;-88
2021/12/18 13:16:00;;;;;;;4.43;2.35;;;;;;;;;;5041692;28;20033;-90
2021/12/18 13:18:47;;;;;;;3.63;2.20;;;;;;;;;;5037184;28;20021;-90
2021/12/18 13:21:25;;;;;;;3.63;2.42;;;;;;;;;;5032702;28;20033;-86
2021/12/18 13:23:57;;;;;;;3.28;1.98;;;;;;;;;;5026247;28;20069;-88
2021/12/18 13:26:41;;;;;;;3.40;2.23;;;;;;;;;;5032471;28;20033;-83
2021/12/18 13:29:21;;;;;;;3.97;2.25;;;;;;;;;;5033442;28;20028;-83
2021/12/18 13:31:56;;;;;;;3.65;2.30;;;;;;;;;;5035501;28;20025;-83
2021/12/18 13:34:40;;;;;;;4.57;2.25;;;;;;;;;;5036955;28;20075;-84
2021/12/18 13:37:11;;;;;;;3.45;2.33;;;;;;;;;;5036169;28;20039;-83
2021/12/18 13:39:43;;;;;;;3.30;2.10;;;;;;;;;;5035821;28;20075;-90
2021/12/18 13:42:10;;;;;;;4.20;2.28;;;;;;;;;;5034404;28;20033;-84
2021/12/18 13:44:58;;;;;;;3.67;2.40;;;;;;;;;;5035935;28;20591;-83
2021/12/18 13:47:34;;;;;;;5.60;2.55;;;;;;;;;;5027940;28;20021;-89
2021/12/18 13:50:00;;;;;;;5.25;3.10;;;;;;;;;;5035301;28;20026;-83
2021/12/18 13:52:40;;;;;;;4.35;2.72;;;;;;;;;;5043160;28;20038;-87
2021/12/18 13:55:47;;;;;;;4.88;2.53;;;;;;;;;;5039249;28;20040;-83
2021/12/18 13:58:17;;;;;;;4.15;2.45;;;;;;;;;;5018934;28;20060;-84
2021/12/18 14:00:57;;;;;;;3.92;2.17;;;;;;;;;;5028912;28;20111;-89
2021/12/18 14:03:28;;;;;;;2.90;1.85;;;;;;;;;;5041122;28;20037;-83
2021/12/18 14:05:56;;;;;;;4.20;1.70;;;;;;;;;;5022492;28;20041;-83
2021/12/18 14:08:21;;;;;;;3.70;2.17;;;;;;;;;;5032649;28;20108;-84
2021/12/18 14:10:48;;;;;;;3.38;1.88;;;;;;;;;;5034110;28;20123;-84
2021/12/18 14:13:14;;;;;;;3.50;2.05;;;;;;;;;;5036154;28;20053;-90
2021/12/18 14:15:40;;;;;;;3.33;1.98;;;;;;;;;;5028919;28;20107;-89
2021/12/18 14:18:28;;;;;;;4.25;2.10;;;;;;;;;;5034990;28;20632;-84
2021/12/18 14:20:53;;;;;;;3.92;2.30;;;;;;;;;;5041671;28;20028;-83
2021/12/18 14:23:19;;;;;;;3.47;2.15;;;;;;;;;;5030390;28;20029;-83
2021/12/18 14:25:44;;;;;;;3.63;2.30;;;;;;;;;;5032627;28;20108;-90
2021/12/18 14:28:20;;;;;;;4.00;2.05;;;;;;;;;;5036316;28;20030;-83
2021/12/18 14:30:46;;;;;;;3.45;2.13;;;;;;;;;;5035536;28;20051;-89
2021/12/18 14:33:17;;;;;;;4.50;2.45;;;;;;;;;;5036973;28;20025;-89
2021/12/18 14:35:51;;;;;;;3.80;2.10;;;;;;;;;;5032301;28;20037;-84
2021/12/18 14:38:21;;;;;;;3.40;2.30;;;;;;;;;;5028466;28;20071;-88
2021/12/18 14:40:57;;;;;;;3.42;2.20;;;;;;;;;;5034174;28;20125;-88
2021/12/18 14:43:25;;;;;;;3.90;2.00;;;;;;;;;;5035257;28;20080;-90
2021/12/18 14:45:51;;;;;;;3.55;2.13;;;;;;;;;;5029717;28;20022;-90
2021/12/18 14:48:31;;;;;;;3.65;2.00;;;;;;;;;;5033929;28;20029;-89
2021/12/18 14:50:56;;;;;;;3.80;2.20;;;;;;;;;;5034431;28;20171;-84
2021/12/18 14:53:23;;;;;;;3.80;2.45;;;;;;;;;;5038669;28;20493;-83
2021/12/18 14:55:53;;;;;;;3.75;2.28;;;;;;;;;;5035992;28;20049;-84
2021/12/18 14:58:27;;;;;;;3.50;2.20;;;;;;;;;;5031112;28;20040;-90
2021/12/18 15:01:04;;;;;;;4.20;2.70;;;;;;;;;;5040030;28;20211;-85
2021/12/18 15:03:37;;;;;;;5.22;2.60;;;;;;;;;;5030284;28;20036;-89
2021/12/18 15:06:04;;;;;;;4.05;2.58;;;;;;;;;;5031111;28;20497;-83
2021/12/18 15:08:43;;;;;;;3.78;2.45;;;;;;;;;;5029993;28;20022;-89
2021/12/18 15:11:13;;;;;;;4.28;2.20;;;;;;;;;;5029084;28;20065;-83
2021/12/18 15:13:44;;;;;;;4.10;2.22;;;;;;;;;;5030609;28;20459;-83
2021/12/18 15:16:16;;;;;;;4.18;2.50;;;;;;;;;;5033325;28;20497;-85
2021/12/18 15:18:45;;;;;;;3.78;2.42;;;;;;;;;;5030747;28;20026;-83
2021/12/18 15:21:11;;;;;;;4.07;2.70;;;;;;;;;;5027438;28;20040;-83
2021/12/18 15:23:36;;;;;;;4.50;2.78;;;;;;;;;;5037652;28;20025;-84
2021/12/18 15:26:03;;;;;;;4.43;3.00;;;;;;;;;;5031933;28;20030;-83
2021/12/18 15:28:28;;;;;;;4.28;2.80;;;;;;;;;;5029896;28;20032;-89
2021/12/18 15:30:57;;;;;;;7.25;2.80;;;;;;;;;;5039583;28;20049;-90
2021/12/18 15:33:22;;;;;;;5.35;2.50;;;;;;;;;;5034051;28;20030;-87
2021/12/18 15:35:51;;;;;;;4.30;2.30;;;;;;;;;;5032324;28;20021;-90
2021/12/18 15:38:20;;;;;;;3.60;2.40;;;;;;;;;;5023450;28;20048;-84
2021/12/18 15:40:47;;;;;;;3.28;2.10;;;;;;;;;;5032573;28;20164;-89
2021/12/18 15:43:21;;;;;;;2.83;1.77;;;;;;;;;;5033725;28;20522;-91
2021/12/18 15:45:46;;;;;;;3.47;2.03;;;;;;;;;;5028905;28;20029;-84
2021/12/18 15:48:16;;;;;;;4.07;2.33;;;;;;;;;;5027835;28;20026;-90
2021/12/18 15:50:53;;;;;;;4.53;2.30;;;;;;;;;;5033979;28;20025;-83